Time;durP1;ratioP1;P1;durP2;ratioP2;P2;SDS_P1;SDS_P2;PMS_P1;PMS_P2;Temp;Humidity;BMP_temperature;BMP_pressure;BME280_temperature;BME280_humidity;BME280_pressure;Samples;Min_cycle;Max_cycle;Signal;HPM_P1;HPM_P2
2022/04/18 00:00:06;;;;;;;;;;;10.70;32.60;;;;;;4940108;29;19915;-89
2022/04/18 00:02:33;;;;;;;;;;;10.70;32.60;;;;;;4940301;29;19914;-89
2022/04/18 00:04:59;;;;;;;;;;;10.70;32.70;;;;;;4940792;29;19914;-89
2022/04/18 00:07:24;;;;;;;;;;;10.70;32.60;;;;;;4940128;29;19919;-89
2022/04/18 00:09:50;;;;;;;;;;;10.70;32.80;;;;;;4939743;29;19969;-89
2022/04/18 00:12:15;;;;;;;;;;;10.60;32.90;;;;;;4940356;29;19926;-89
2022/04/18 00:14:42;;;;;;;;;;;10.60;33.00;;;;;;4957438;29;19923;-89
2022/04/18 00:17:09;;;;;;;;;;;10.60;33.00;;;;;;4940777;29;19915;-88
2022/04/18 00:19:38;;;;;;;;;;;10.50;32.90;;;;;;4941149;29;19921;-89
2022/04/18 00:22:04;;;;;;;;;;;10.50;33.00;;;;;;4940334;29;20458;-88
2022/04/18 00:24:31;;;;;;;;;;;10.50;33.00;;;;;;4939668;29;19925;-88
2022/04/18 00:26:56;;;;;;;;;;;10.50;33.00;;;;;;4940432;29;20342;-88
2022/04/18 00:29:22;;;;;;;;;;;10.40;33.30;;;;;;4939911;29;19960;-87
2022/04/18 00:31:47;;;;;;;;;;;10.30;33.60;;;;;;4939955;29;19945;-89
2022/04/18 00:34:14;;;;;;;;;;;10.30;33.70;;;;;;4940042;29;19962;-89
2022/04/18 00:36:40;;;;;;;;;;;10.30;33.80;;;;;;4940501;29;20294;-89
2022/04/18 00:39:05;;;;;;;;;;;10.20;33.90;;;;;;4940312;29;19915;-89
2022/04/18 00:41:32;;;;;;;;;;;10.20;34.20;;;;;;4939845;29;19915;-88
2022/04/18 00:43:58;;;;;;;;;;;10.20;34.20;;;;;;4939275;29;20037;-89
2022/04/18 00:46:24;;;;;;;;;;;10.20;34.10;;;;;;4940668;29;19985;-90
2022/04/18 00:48:49;;;;;;;;;;;10.20;34.10;;;;;;4956919;29;20385;-89
2022/04/18 00:51:22;;;;;;;;;;;10.20;34.20;;;;;;4940228;29;19922;-90
2022/04/18 00:53:48;;;;;;;;;;;10.20;34.30;;;;;;4940213;29;19922;-89
2022/04/18 00:56:16;;;;;;;;;;;10.20;34.40;;;;;;4959235;28;20263;-89
2022/04/18 00:58:41;;;;;;;;;;;10.10;34.50;;;;;;4960355;29;19914;-89
2022/04/18 01:01:07;;;;;;;;;;;10.10;34.50;;;;;;4943096;29;19961;-89
2022/04/18 01:03:33;;;;;;;;;;;10.00;34.60;;;;;;4942316;29;19911;-88
2022/04/18 01:05:59;;;;;;;;;;;10.00;34.80;;;;;;4942825;29;19961;-89
2022/04/18 01:08:25;;;;;;;;;;;10.00;35.10;;;;;;4942825;29;19914;-88
2022/04/18 01:10:51;;;;;;;;;;;9.90;35.10;;;;;;4943219;29;19968;-89
2022/04/18 01:13:16;;;;;;;;;;;9.90;35.10;;;;;;4959603;29;19919;-88
2022/04/18 01:15:42;;;;;;;;;;;9.90;35.30;;;;;;4961030;29;19919;-89
2022/04/18 01:18:07;;;;;;;;;;;9.90;35.40;;;;;;4960587;29;19911;-88
2022/04/18 01:20:36;;;;;;;;;;;9.90;35.40;;;;;;4943081;29;20282;-88
2022/04/18 01:23:05;;;;;;;;;;;9.80;35.40;;;;;;4960639;29;19899;-88
2022/04/18 01:30:59;;;;;;;;;;;9.80;36.10;;;;;;4960046;29;19929;-88
2022/04/18 01:33:24;;;;;;;;;;;9.70;36.50;;;;;;4960342;29;20013;-89
2022/04/18 01:35:51;;;;;;;;;;;9.70;36.70;;;;;;4943099;29;19922;-88
2022/04/18 01:38:16;;;;;;;;;;;9.70;36.60;;;;;;4943085;29;19978;-88
2022/04/18 01:40:42;;;;;;;;;;;9.70;36.60;;;;;;4960058;29;19957;-89
2022/04/18 01:43:07;;;;;;;;;;;9.70;36.50;;;;;;4943700;29;20355;-88
2022/04/18 01:45:34;;;;;;;;;;;9.60;36.40;;;;;;4943722;29;19918;-88
2022/04/18 01:48:00;;;;;;;;;;;9.60;36.80;;;;;;4961679;29;19921;-89
2022/04/18 01:50:25;;;;;;;;;;;9.50;36.90;;;;;;4943496;29;19914;-89
2022/04/18 01:52:52;;;;;;;;;;;9.50;36.70;;;;;;4943155;29;19922;-89
2022/04/18 01:55:18;;;;;;;;;;;9.50;37.00;;;;;;4959634;29;19921;-88
2022/04/18 01:57:43;;;;;;;;;;;9.50;37.10;;;;;;4941892;29;19950;-88
2022/04/18 02:00:09;;;;;;;;;;;9.40;37.40;;;;;;4959022;28;19965;-89
2022/04/18 02:02:34;;;;;;;;;;;9.40;37.40;;;;;;4942624;29;19914;-89
2022/04/18 02:05:00;;;;;;;;;;;9.40;37.80;;;;;;4941771;29;19922;-88
2022/04/18 02:07:26;;;;;;;;;;;9.40;37.80;;;;;;4940467;29;19915;-88
2022/04/18 02:09:52;;;;;;;;;;;9.40;37.60;;;;;;4959220;29;19914;-89
2022/04/18 02:12:17;;;;;;;;;;;9.50;37.70;;;;;;4959718;29;19919;-89
2022/04/18 02:14:43;;;;;;;;;;;9.40;37.90;;;;;;4942399;29;19923;-89
2022/04/18 02:17:08;;;;;;;;;;;9.50;37.80;;;;;;4959434;29;19968;-88
2022/04/18 02:19:34;;;;;;;;;;;9.50;37.90;;;;;;4958580;29;19973;-89
2022/04/18 02:21:59;;;;;;;;;;;9.50;37.80;;;;;;4959317;29;19910;-88
2022/04/18 02:24:25;;;;;;;;;;;9.50;37.70;;;;;;4941690;29;19925;-88
2022/04/18 02:26:50;;;;;;;;;;;9.40;37.70;;;;;;4959511;29;19921;-89
2022/04/18 02:29:16;;;;;;;;;;;9.30;37.60;;;;;;4942233;29;19922;-89
2022/04/18 02:34:25;;;;;;;;;;;9.30;37.50;;;;;;4958936;29;19942;-89
2022/04/18 02:36:51;;;;;;;;;;;9.30;37.70;;;;;;4958634;29;19914;-89
2022/04/18 02:39:16;;;;;;;;;;;9.20;37.70;;;;;;4959725;28;19915;-88
2022/04/18 02:41:41;;;;;;;;;;;9.20;37.60;;;;;;4941520;29;19965;-89
2022/04/18 02:44:07;;;;;;;;;;;9.10;37.60;;;;;;4941794;29;19952;-90
2022/04/18 02:46:32;;;;;;;;;;;9.10;37.90;;;;;;4958775;29;20597;-89
2022/04/18 02:48:58;;;;;;;;;;;9.10;38.00;;;;;;4941595;29;19928;-89
2022/04/18 02:51:27;;;;;;;;;;;9.00;37.80;;;;;;4940852;29;19914;-88
2022/04/18 02:53:53;;;;;;;;;;;9.00;37.80;;;;;;4941172;29;19961;-89
2022/04/18 02:56:19;;;;;;;;;;;9.00;37.70;;;;;;4958595;29;19957;-89
2022/04/18 02:58:45;;;;;;;;;;;8.90;37.80;;;;;;4940923;29;19925;-89
2022/04/18 03:01:10;;;;;;;;;;;8.90;38.00;;;;;;4940322;29;19997;-88
2022/04/18 03:03:35;;;;;;;;;;;8.80;38.00;;;;;;4941270;29;19910;-88
2022/04/18 03:06:01;;;;;;;;;;;8.70;38.20;;;;;;4941349;29;19949;-88
2022/04/18 03:08:27;;;;;;;;;;;8.70;38.10;;;;;;4958016;28;19945;-89
2022/04/18 03:11:05;;;;;;;;;;;8.60;38.20;;;;;;4957972;29;20351;-88
2022/04/18 03:13:32;;;;;;;;;;;8.50;38.50;;;;;;4940977;29;19926;-89
2022/04/18 03:15:58;;;;;;;;;;;8.50;39.20;;;;;;4940446;29;19914;-89
2022/04/18 03:18:24;;;;;;;;;;;8.50;39.30;;;;;;4957664;28;20282;-89
2022/04/18 03:20:49;;;;;;;;;;;8.40;39.60;;;;;;4941287;29;19954;-88
2022/04/18 03:23:15;;;;;;;;;;;8.40;39.70;;;;;;4941708;29;19956;-89
2022/04/18 03:25:40;;;;;;;;;;;8.40;40.00;;;;;;4941384;29;19922;-89
2022/04/18 03:28:06;;;;;;;;;;;8.40;40.00;;;;;;4940780;29;19911;-89
2022/04/18 03:30:31;;;;;;;;;;;8.40;40.20;;;;;;4941799;29;19919;-89
2022/04/18 03:32:57;;;;;;;;;;;8.40;40.40;;;;;;4941096;29;19922;-89
2022/04/18 03:35:22;;;;;;;;;;;8.40;40.30;;;;;;4941776;29;19925;-89
2022/04/18 03:40:34;;;;;;;;;;;8.40;40.20;;;;;;4958326;29;19951;-88
2022/04/18 03:43:00;;;;;;;;;;;8.40;40.30;;;;;;4958440;29;19914;-89
2022/04/18 03:45:25;;;;;;;;;;;8.40;40.40;;;;;;4957936;29;20017;-89
2022/04/18 03:47:51;;;;;;;;;;;8.40;40.40;;;;;;4939924;29;19918;-89
2022/04/18 03:50:17;;;;;;;;;;;8.40;40.30;;;;;;4956989;29;19961;-89
2022/04/18 03:52:42;;;;;;;;;;;8.40;40.70;;;;;;4956432;29;19918;-90
2022/04/18 03:55:08;;;;;;;;;;;8.40;40.70;;;;;;4956942;28;20274;-89
2022/04/18 03:57:33;;;;;;;;;;;8.40;40.80;;;;;;4956983;29;19911;-90
2022/04/18 03:59:59;;;;;;;;;;;8.40;40.90;;;;;;4957408;29;19922;-89
2022/04/18 04:02:24;;;;;;;;;;;8.50;40.70;;;;;;4940199;29;19914;-89
2022/04/18 04:04:50;;;;;;;;;;;8.50;40.60;;;;;;4940200;29;19918;-89
2022/04/18 04:07:15;;;;;;;;;;;8.40;40.50;;;;;;4957498;29;20343;-89
2022/04/18 04:09:41;;;;;;;;;;;8.50;40.40;;;;;;4940073;29;19977;-89
2022/04/18 04:12:07;;;;;;;;;;;8.40;40.40;;;;;;4939940;29;19926;-89
2022/04/18 04:14:33;;;;;;;;;;;8.30;40.30;;;;;;4940149;29;19921;-89
2022/04/18 04:16:58;;;;;;;;;;;8.30;40.20;;;;;;4957048;29;20307;-89
2022/04/18 04:19:24;;;;;;;;;;;8.30;40.20;;;;;;4939580;29;19964;-89
2022/04/18 04:21:49;;;;;;;;;;;8.20;40.20;;;;;;4940322;29;20278;-88
2022/04/18 04:24:15;;;;;;;;;;;8.20;40.40;;;;;;4940201;29;20063;-88
2022/04/18 04:26:40;;;;;;;;;;;8.20;40.50;;;;;;4940200;29;19918;-89
2022/04/18 04:29:05;;;;;;;;;;;8.10;40.50;;;;;;4940139;28;19914;-88
2022/04/18 04:31:31;;;;;;;;;;;8.10;40.60;;;;;;4942838;29;19925;-89
2022/04/18 04:33:56;;;;;;;;;;;8.10;40.80;;;;;;4943313;29;20022;-89
2022/04/18 04:36:22;;;;;;;;;;;8.20;41.10;;;;;;4943518;29;20015;-89
2022/04/18 04:38:47;;;;;;;;;;;8.20;41.30;;;;;;4943309;29;19915;-89
2022/04/18 04:41:14;;;;;;;;;;;8.30;41.60;;;;;;4960308;29;19925;-89
2022/04/18 04:43:40;;;;;;;;;;;8.50;41.90;;;;;;4960475;29;19914;-89
2022/04/18 04:46:05;;;;;;;;;;;8.70;42.30;;;;;;4942771;29;20001;-88
2022/04/18 04:48:31;;;;;;;;;;;9.00;42.60;;;;;;4942928;29;20438;-89
2022/04/18 04:50:56;;;;;;;;;;;9.30;42.70;;;;;;4941787;29;19915;-89
2022/04/18 04:53:22;;;;;;;;;;;9.60;42.90;;;;;;4942903;29;19918;-89
2022/04/18 04:55:48;;;;;;;;;;;9.90;43.20;;;;;;4943293;29;19926;-89
2022/04/18 04:58:13;;;;;;;;;;;10.20;43.50;;;;;;4942953;29;19917;-89
2022/04/18 05:00:39;;;;;;;;;;;10.70;43.60;;;;;;4960494;29;19922;-90
2022/04/18 05:03:05;;;;;;;;;;;11.10;43.60;;;;;;4942241;29;19917;-89
2022/04/18 05:05:32;;;;;;;;;;;11.60;43.40;;;;;;4942427;29;19919;-89
2022/04/18 05:07:58;;;;;;;;;;;12.00;43.30;;;;;;4943153;29;19925;-89
2022/04/18 05:10:23;;;;;;;;;;;12.40;43.30;;;;;;4927149;29;20376;-90
2022/04/18 05:12:49;;;;;;;;;;;13.00;43.30;;;;;;4941756;29;19969;-90
2022/04/18 05:15:14;;;;;;;;;;;13.50;43.20;;;;;;4957959;29;20363;-90
2022/04/18 05:17:40;;;;;;;;;;;14.00;43.00;;;;;;4940342;29;19914;-88
2022/04/18 05:20:06;;;;;;;;;;;14.40;42.40;;;;;;4940435;29;19921;-88
2022/04/18 05:22:31;;;;;;;;;;;14.90;41.90;;;;;;4940467;29;19914;-89
2022/04/18 05:24:57;;;;;;;;;;;15.40;41.30;;;;;;4940385;29;20359;-89
2022/04/18 05:27:23;;;;;;;;;;;15.80;40.70;;;;;;4957621;29;19919;-89
2022/04/18 05:29:49;;;;;;;;;;;16.30;40.30;;;;;;4957622;29;19922;-89
2022/04/18 05:32:15;;;;;;;;;;;16.80;39.70;;;;;;4957483;29;19970;-89
2022/04/18 05:34:40;;;;;;;;;;;17.30;38.90;;;;;;4957133;28;20456;-89
2022/04/18 05:37:07;;;;;;;;;;;17.70;38.50;;;;;;4939833;29;19965;-89
2022/04/18 05:39:32;;;;;;;;;;;18.20;38.20;;;;;;4957190;29;19922;-89
2022/04/18 05:41:58;;;;;;;;;;;18.70;37.80;;;;;;4956193;28;19915;-89
2022/04/18 05:44:23;;;;;;;;;;;19.20;37.20;;;;;;4958170;29;19985;-89
2022/04/18 05:46:49;;;;;;;;;;;19.70;36.70;;;;;;4941087;29;19911;-89
2022/04/18 05:49:14;;;;;;;;;;;20.20;35.80;;;;;;4958117;29;19926;-89
2022/04/18 05:51:40;;;;;;;;;;;20.70;35.20;;;;;;4940844;29;19915;-89
2022/04/18 05:54:05;;;;;;;;;;;21.20;34.60;;;;;;4958795;29;20255;-89
2022/04/18 05:56:31;;;;;;;;;;;21.70;34.00;;;;;;4942086;29;19926;-94
2022/04/18 05:58:57;;;;;;;;;;;22.10;33.50;;;;;;4940869;29;19934;-90
2022/04/18 06:01:22;;;;;;;;;;;22.60;33.20;;;;;;4958898;29;19920;-89
2022/04/18 06:03:48;;;;;;;;;;;23.00;32.30;;;;;;4958457;28;20322;-90
2022/04/18 06:06:14;;;;;;;;;;;23.40;31.50;;;;;;4941637;29;19937;-89
2022/04/18 06:08:39;;;;;;;;;;;23.90;30.40;;;;;;4925044;29;20117;-90
2022/04/18 06:11:05;;;;;;;;;;;24.30;29.80;;;;;;4940282;29;19933;-89
2022/04/18 06:13:30;;;;;;;;;;;24.60;28.40;;;;;;4957859;29;19934;-90
2022/04/18 06:15:56;;;;;;;;;;;24.90;27.60;;;;;;4940954;29;19923;-90
2022/04/18 06:18:21;;;;;;;;;;;25.20;27.00;;;;;;4941358;29;19911;-89
2022/04/18 06:20:47;;;;;;;;;;;25.40;26.30;;;;;;4957720;29;19919;-89
2022/04/18 06:23:14;;;;;;;;;;;25.70;25.70;;;;;;4940248;29;19915;-89
2022/04/18 06:25:39;;;;;;;;;;;25.90;25.10;;;;;;4940884;29;19918;-89
2022/04/18 06:28:05;;;;;;;;;;;26.10;24.80;;;;;;4957134;29;20393;-89
2022/04/18 06:30:30;;;;;;;;;;;26.20;24.10;;;;;;4957832;28;19980;-89
2022/04/18 06:32:56;;;;;;;;;;;26.30;23.40;;;;;;4957893;29;19922;-89
2022/04/18 06:35:22;;;;;;;;;;;26.40;23.10;;;;;;4940433;29;20283;-90
2022/04/18 06:37:47;;;;;;;;;;;26.50;23.00;;;;;;4940005;29;19945;-89
2022/04/18 06:40:13;;;;;;;;;;;26.70;22.80;;;;;;4957143;29;20377;-89
2022/04/18 06:42:38;;;;;;;;;;;26.80;22.30;;;;;;4957038;29;19977;-89
2022/04/18 06:45:04;;;;;;;;;;;26.80;22.20;;;;;;4956725;29;19993;-89
2022/04/18 06:47:29;;;;;;;;;;;26.90;22.20;;;;;;4957321;29;19922;-90
2022/04/18 06:49:55;;;;;;;;;;;27.20;22.10;;;;;;4956923;29;20359;-90
2022/04/18 06:52:22;;;;;;;;;;;27.40;21.80;;;;;;4939431;28;20263;-90
2022/04/18 06:54:48;;;;;;;;;;;27.70;21.80;;;;;;4939200;29;19915;-89
2022/04/18 06:57:13;;;;;;;;;;;28.00;21.70;;;;;;4956899;29;19914;-90
2022/04/18 06:59:39;;;;;;;;;;;28.30;21.20;;;;;;4956573;28;19958;-88
2022/04/18 07:02:04;;;;;;;;;;;28.60;21.10;;;;;;4956381;28;19922;-89
2022/04/18 07:04:30;;;;;;;;;;;28.80;21.00;;;;;;4939395;29;19915;-89
2022/04/18 07:06:55;;;;;;;;;;;29.10;20.70;;;;;;4939763;29;20311;-89
2022/04/18 07:09:21;;;;;;;;;;;29.30;20.20;;;;;;4957254;29;20279;-89
2022/04/18 07:11:47;;;;;;;;;;;29.50;19.90;;;;;;4944853;29;19922;-90
2022/04/18 07:14:14;;;;;;;;;;;29.60;19.80;;;;;;4959671;29;19926;-89
2022/04/18 07:16:40;;;;;;;;;;;29.80;19.90;;;;;;4959729;29;19973;-90
2022/04/18 07:19:06;;;;;;;;;;;30.20;19.90;;;;;;4959009;29;20571;-89
2022/04/18 07:21:31;;;;;;;;;;;30.50;20.00;;;;;;4940775;29;19918;-90
2022/04/18 07:23:56;;;;;;;;;;;30.90;19.40;;;;;;4957995;29;20350;-90
2022/04/18 07:26:22;;;;;;;;;;;31.20;19.00;;;;;;4958159;29;20342;-89
2022/04/18 07:28:48;;;;;;;;;;;31.30;18.40;;;;;;4940186;29;20275;-90
2022/04/18 07:31:13;;;;;;;;;;;31.40;18.10;;;;;;4957282;29;19958;-90
2022/04/18 07:33:40;;;;;;;;;;;31.50;17.80;;;;;;4958963;28;19973;-88
2022/04/18 07:36:06;;;;;;;;;;;31.50;17.90;;;;;;4941738;29;19918;-89
2022/04/18 07:38:50;;;;;;;;;;;31.50;17.70;;;;;;4957431;29;19911;-89
2022/04/18 07:41:16;;;;;;;;;;;31.60;17.40;;;;;;4940225;29;19954;-89
2022/04/18 07:43:42;;;;;;;;;;;31.50;17.50;;;;;;4940072;29;20397;-88
2022/04/18 07:46:07;;;;;;;;;;;31.40;17.60;;;;;;4956292;29;19922;-89
2022/04/18 07:48:33;;;;;;;;;;;31.40;17.70;;;;;;4947675;28;19918;-87
2022/04/18 07:53:42;;;;;;;;;;;31.30;17.50;;;;;;4974702;28;19926;-89
2022/04/18 07:56:08;;;;;;;;;;;31.40;17.40;;;;;;4974140;28;19922;-88
2022/04/18 07:58:33;;;;;;;;;;;31.40;17.30;;;;;;4973886;28;19910;-88
2022/04/18 08:00:59;;;;;;;;;;;31.30;17.30;;;;;;4974429;28;20362;-88
2022/04/18 08:03:24;;;;;;;;;;;31.30;17.40;;;;;;4974338;28;20374;-87
2022/04/18 08:05:50;;;;;;;;;;;31.50;17.60;;;;;;4977750;28;19918;-88
2022/04/18 08:08:15;;;;;;;;;;;31.80;17.40;;;;;;4979568;28;19914;-88
2022/04/18 08:10:41;;;;;;;;;;;31.90;17.00;;;;;;4978564;28;19918;-88
2022/04/18 08:13:07;;;;;;;;;;;32.00;17.00;;;;;;4979265;28;19928;-87
2022/04/18 08:15:32;;;;;;;;;;;32.30;16.90;;;;;;4977766;28;19914;-87
2022/04/18 08:17:58;;;;;;;;;;;32.40;16.40;;;;;;4971293;28;19922;-87
2022/04/18 08:20:24;;;;;;;;;;;32.60;16.50;;;;;;4975473;28;19914;-88
2022/04/18 08:22:49;;;;;;;;;;;32.80;16.50;;;;;;4973357;28;19929;-88
2022/04/18 08:25:15;;;;;;;;;;;33.00;16.30;;;;;;4941473;29;20256;-88
2022/04/18 08:27:40;;;;;;;;;;;33.10;16.40;;;;;;4941074;29;19933;-87
2022/04/18 08:30:06;;;;;;;;;;;33.20;16.40;;;;;;4941040;29;19917;-87
2022/04/18 08:32:33;;;;;;;;;;;33.50;15.80;;;;;;4957935;28;19923;-87
2022/04/18 08:34:58;;;;;;;;;;;33.40;15.50;;;;;;4957887;29;19990;-87
2022/04/18 08:37:24;;;;;;;;;;;33.50;15.50;;;;;;4957792;29;20335;-88
2022/04/18 08:39:49;;;;;;;;;;;33.50;15.50;;;;;;4957856;29;19919;-88
2022/04/18 08:42:15;;;;;;;;;;;33.50;15.60;;;;;;4958719;28;20360;-88
2022/04/18 08:44:41;;;;;;;;;;;33.30;15.40;;;;;;4958479;29;19915;-88
2022/04/18 08:47:06;;;;;;;;;;;33.30;15.60;;;;;;4958613;29;19914;-88
2022/04/18 08:55:02;;;;;;;;;;;33.80;15.10;;;;;;4958803;29;19925;-86
2022/04/18 08:57:29;;;;;;;;;;;33.80;14.90;;;;;;4941270;29;19923;-87
2022/04/18 08:59:55;;;;;;;;;;;33.80;14.90;;;;;;4958953;29;19985;-87
2022/04/18 09:02:21;;;;;;;;;;;33.80;15.10;;;;;;4958002;29;19939;-89
2022/04/18 09:04:46;;;;;;;;;;;33.90;14.90;;;;;;4941613;29;19915;-87
2022/04/18 09:07:12;;;;;;;;;;;34.00;14.90;;;;;;4940861;29;20053;-87
2022/04/18 09:09:38;;;;;;;;;;;34.20;14.90;;;;;;4941110;29;20556;-89
2022/04/18 09:12:24;;;;;;;;;;;34.50;14.80;;;;;;4941129;29;19918;-87
2022/04/18 09:14:50;;;;;;;;;;;34.50;14.50;;;;;;4940466;29;19919;-87
2022/04/18 09:17:29;;;;;;;;;;;34.70;14.30;;;;;;4940944;29;20050;-88
2022/04/18 09:20:12;;;;;;;;;;;34.80;14.00;;;;;;4957994;29;19953;-88
2022/04/18 09:22:44;;;;;;;;;;;34.80;14.30;;;;;;4940535;29;19914;-87
2022/04/18 09:25:13;;;;;;;;;;;35.10;13.90;;;;;;4941541;29;19918;-88
2022/04/18 09:27:39;;;;;;;;;;;35.20;13.90;;;;;;4940997;29;19970;-88
2022/04/18 09:30:05;;;;;;;;;;;35.30;14.00;;;;;;4940912;29;19974;-88
2022/04/18 09:32:31;;;;;;;;;;;35.20;13.50;;;;;;4940635;29;19962;-88
2022/04/18 09:35:04;;;;;;;;;;;35.20;13.80;;;;;;4940352;29;20040;-88
2022/04/18 09:37:30;;;;;;;;;;;35.30;13.60;;;;;;4957627;29;20005;-88
2022/04/18 09:39:56;;;;;;;;;;;35.30;13.40;;;;;;4940161;29;20017;-88
2022/04/18 09:42:23;;;;;;;;;;;35.40;13.40;;;;;;4940600;29;19970;-87
2022/04/18 09:44:49;;;;;;;;;;;35.30;13.50;;;;;;4940363;29;20009;-88
2022/04/18 09:47:16;;;;;;;;;;;35.60;13.80;;;;;;4957215;29;19914;-88
2022/04/18 09:49:41;;;;;;;;;;;36.00;13.60;;;;;;4939947;29;20358;-88
2022/04/18 09:52:09;;;;;;;;;;;35.90;13.10;;;;;;4956493;29;19974;-87
2022/04/18 09:54:35;;;;;;;;;;;36.00;13.30;;;;;;4955885;29;19969;-87
2022/04/18 09:57:05;;;;;;;;;;;36.20;12.70;;;;;;4956863;29;19938;-88
2022/04/18 09:59:33;;;;;;;;;;;36.20;12.70;;;;;;4940109;29;19942;-88
2022/04/18 10:01:59;;;;;;;;;;;36.30;12.50;;;;;;4939694;29;19982;-88
2022/04/18 10:04:26;;;;;;;;;;;36.10;12.40;;;;;;4939650;29;19973;-87
2022/04/18 10:06:56;;;;;;;;;;;36.10;12.40;;;;;;4957582;29;20417;-89
2022/04/18 10:09:22;;;;;;;;;;;36.10;12.30;;;;;;4939432;29;19926;-87
2022/04/18 10:11:48;;;;;;;;;;;36.10;12.00;;;;;;4956688;29;20017;-89
2022/04/18 10:14:13;;;;;;;;;;;36.10;12.10;;;;;;4944026;29;20131;-90
2022/04/18 10:16:40;;;;;;;;;;;36.10;12.40;;;;;;4944279;29;19925;-90
2022/04/18 10:19:19;;;;;;;;;;;36.20;12.30;;;;;;4960650;29;19969;-89
2022/04/18 10:21:48;;;;;;;;;;;36.00;12.10;;;;;;4943879;29;20345;-90
2022/04/18 10:24:17;;;;;;;;;;;35.90;11.90;;;;;;4943019;29;19921;-89
2022/04/18 10:26:53;;;;;;;;;;;35.70;11.90;;;;;;4942940;29;20012;-90
2022/04/18 10:29:30;;;;;;;;;;;35.80;12.10;;;;;;4942782;29;19922;-93
2022/04/18 10:31:59;;;;;;;;;;;36.00;12.00;;;;;;4943372;29;19929;-90
2022/04/18 10:34:31;;;;;;;;;;;36.00;11.90;;;;;;4946039;29;19926;-91
2022/04/18 10:36:57;;;;;;;;;;;35.80;12.00;;;;;;4942590;29;20393;-91
2022/04/18 10:39:22;;;;;;;;;;;35.70;12.10;;;;;;4942844;29;19914;-89
2022/04/18 10:41:49;;;;;;;;;;;35.40;12.10;;;;;;4960579;29;19922;-90
2022/04/18 10:44:16;;;;;;;;;;;35.50;12.30;;;;;;4959955;29;19914;-90
2022/04/18 10:46:42;;;;;;;;;;;35.60;12.20;;;;;;4959561;29;19914;-91
2022/04/18 10:49:15;;;;;;;;;;;35.70;12.40;;;;;;4942211;29;19953;-90
2022/04/18 10:51:41;;;;;;;;;;;35.80;12.00;;;;;;4942796;29;19918;-91
2022/04/18 10:54:08;;;;;;;;;;;36.00;12.10;;;;;;4959324;29;19952;-90
2022/04/18 10:56:49;;;;;;;;;;;36.10;12.10;;;;;;4943441;29;19914;-90
2022/04/18 10:59:16;;;;;;;;;;;36.40;11.70;;;;;;4941919;29;20006;-90
2022/04/18 11:01:45;;;;;;;;;;;36.30;11.60;;;;;;4942296;29;19919;-90
2022/04/18 11:04:14;;;;;;;;;;;36.00;11.80;;;;;;4959264;29;19917;-90
2022/04/18 11:06:40;;;;;;;;;;;36.30;11.80;;;;;;4941662;29;19922;-90
2022/04/18 11:09:10;;;;;;;;;;;36.10;11.30;;;;;;4942411;29;19917;-90
2022/04/18 11:11:36;;;;;;;;;;;35.90;11.40;;;;;;4958059;28;19925;-90
2022/04/18 11:14:02;;;;;;;;;;;35.80;11.40;;;;;;4958603;29;19914;-91
2022/04/18 11:16:28;;;;;;;;;;;35.80;11.70;;;;;;4926377;29;19927;-91
2022/04/18 11:19:06;;;;;;;;;;;35.80;11.60;;;;;;4959135;29;19915;-90
2022/04/18 11:21:50;;;;;;;;;;;35.80;11.80;;;;;;4942044;29;19985;-90
2022/04/18 11:24:32;;;;;;;;;;;35.90;11.90;;;;;;4958575;29;19915;-91
2022/04/18 11:26:57;;;;;;;;;;;35.80;11.60;;;;;;4959114;29;19922;-93
2022/04/18 11:29:24;;;;;;;;;;;35.50;11.30;;;;;;4941566;29;20000;-89
2022/04/18 11:31:49;;;;;;;;;;;35.30;11.40;;;;;;4958962;29;19918;-90
2022/04/18 11:34:17;;;;;;;;;;;35.30;11.50;;;;;;4958381;29;19918;-89
2022/04/18 11:36:43;;;;;;;;;;;35.20;11.30;;;;;;4940842;29;20416;-90
2022/04/18 11:39:10;;;;;;;;;;;35.20;11.40;;;;;;4941253;29;19965;-90
2022/04/18 11:41:36;;;;;;;;;;;35.10;11.50;;;;;;4959772;29;19914;-91
2022/04/18 11:44:02;;;;;;;;;;;35.10;11.50;;;;;;4958987;29;20283;-90
2022/04/18 11:46:28;;;;;;;;;;;35.10;11.20;;;;;;4942688;29;19981;-90
2022/04/18 11:48:54;;;;;;;;;;;34.80;11.50;;;;;;4943117;29;19914;-90
2022/04/18 11:51:40;;;;;;;;;;;34.80;11.70;;;;;;4959326;29;20538;-90
2022/04/18 11:54:06;;;;;;;;;;;35.00;11.70;;;;;;4942335;29;19979;-89
2022/04/18 11:56:32;;;;;;;;;;;34.90;11.50;;;;;;4942648;29;19919;-90
2022/04/18 11:59:02;;;;;;;;;;;35.00;11.40;;;;;;4942178;29;19915;-90
2022/04/18 12:06:56;;;;;;;;;;;35.30;11.20;;;;;;4960348;29;19926;-90
2022/04/18 12:09:22;;;;;;;;;;;35.40;11.20;;;;;;4959945;29;20531;-90
2022/04/18 12:11:48;;;;;;;;;;;35.50;11.10;;;;;;4942030;29;19918;-91
2022/04/18 12:14:14;;;;;;;;;;;35.80;11.20;;;;;;4942237;29;19915;-90
2022/04/18 12:16:41;;;;;;;;;;;35.70;11.10;;;;;;4960020;29;19973;-89
2022/04/18 12:19:11;;;;;;;;;;;35.70;11.10;;;;;;4942833;29;19916;-89
2022/04/18 12:21:37;;;;;;;;;;;35.80;11.10;;;;;;4959197;29;19950;-91
2022/04/18 12:24:03;;;;;;;;;;;35.60;10.80;;;;;;4943067;29;19914;-90
2022/04/18 12:26:29;;;;;;;;;;;35.50;11.10;;;;;;4926169;29;19919;-91
2022/04/18 12:29:03;;;;;;;;;;;35.60;11.10;;;;;;4960398;29;19895;-91
2022/04/18 12:31:29;;;;;;;;;;;35.60;11.10;;;;;;4941255;29;19919;-91
2022/04/18 12:33:54;;;;;;;;;;;35.50;11.00;;;;;;4959089;29;20360;-89
2022/04/18 12:36:33;;;;;;;;;;;35.50;11.10;;;;;;4959697;28;19922;-90
2022/04/18 12:38:59;;;;;;;;;;;35.30;11.10;;;;;;4943825;29;19965;-91
2022/04/18 12:41:29;;;;;;;;;;;35.30;10.90;;;;;;4942693;29;20006;-90
2022/04/18 12:43:54;;;;;;;;;;;35.20;11.00;;;;;;4943990;29;20333;-91
2022/04/18 12:46:25;;;;;;;;;;;35.20;11.10;;;;;;4941332;29;19953;-91
2022/04/18 12:48:51;;;;;;;;;;;35.20;11.20;;;;;;4942741;29;19937;-91
2022/04/18 12:51:18;;;;;;;;;;;35.00;11.00;;;;;;4960963;28;19997;-91
2022/04/18 12:53:45;;;;;;;;;;;34.70;10.80;;;;;;4946061;29;19929;-91
2022/04/18 12:56:11;;;;;;;;;;;34.40;11.10;;;;;;4945809;29;20332;-91
2022/04/18 12:58:39;;;;;;;;;;;34.20;11.00;;;;;;4945492;29;19962;-92
2022/04/18 13:01:05;;;;;;;;;;;33.80;11.00;;;;;;4945377;29;20385;-90
2022/04/18 13:03:39;;;;;;;;;;;33.40;11.10;;;;;;4946642;29;19911;-92
2022/04/18 13:06:04;;;;;;;;;;;33.20;11.10;;;;;;4962762;29;19918;-91
2022/04/18 13:08:30;;;;;;;;;;;32.90;11.30;;;;;;4963150;29;19917;-90
2022/04/18 13:10:56;;;;;;;;;;;32.80;11.70;;;;;;4945909;29;19919;-91
2022/04/18 13:13:23;;;;;;;;;;;32.90;11.40;;;;;;4946831;29;19919;-91
2022/04/18 13:15:49;;;;;;;;;;;32.60;11.20;;;;;;4963770;29;19919;-89
2022/04/18 13:18:21;;;;;;;;;;;32.30;11.40;;;;;;4945957;29;19929;-90
2022/04/18 13:20:46;;;;;;;;;;;32.30;11.70;;;;;;4946986;29;19983;-91
2022/04/18 13:23:12;;;;;;;;;;;32.30;11.30;;;;;;4947100;29;19946;-90
2022/04/18 13:25:39;;;;;;;;;;;32.10;11.40;;;;;;4946670;29;19914;-90
2022/04/18 13:28:09;;;;;;;;;;;32.00;11.70;;;;;;4962620;29;20374;-90
2022/04/18 13:30:39;;;;;;;;;;;31.80;11.90;;;;;;4946227;29;20386;-90
2022/04/18 13:33:05;;;;;;;;;;;31.70;12.00;;;;;;4946342;29;19930;-91
2022/04/18 13:36:30;;;;;;;;;;;31.80;11.80;;;;;;4963616;29;19911;-91
2022/04/18 13:38:21;;;;;;;;;;;31.80;11.50;;;;;;4963907;29;20283;-90
2022/04/18 13:40:46;;;;;;;;;;;31.70;11.50;;;;;;4946479;29;19919;-90
2022/04/18 13:43:12;;;;;;;;;;;31.50;11.50;;;;;;4946785;29;19920;-90
2022/04/18 13:45:38;;;;;;;;;;;31.50;11.60;;;;;;4964164;29;20278;-88
2022/04/18 13:48:03;;;;;;;;;;;31.30;11.50;;;;;;4946326;29;20389;-91
2022/04/18 13:50:29;;;;;;;;;;;30.80;12.00;;;;;;4945736;29;20008;-90
2022/04/18 13:52:54;;;;;;;;;;;30.20;12.50;;;;;;4945113;29;19929;-91
2022/04/18 13:55:20;;;;;;;;;;;29.60;13.00;;;;;;4944741;29;19917;-91
2022/04/18 13:57:46;;;;;;;;;;;29.00;13.40;;;;;;4943954;29;19919;-90
2022/04/18 14:00:14;;;;;;;;;;;28.40;13.80;;;;;;4962926;29;19961;-89
2022/04/18 14:02:40;;;;;;;;;;;27.90;14.20;;;;;;4962679;28;19957;-89
2022/04/18 14:05:05;;;;;;;;;;;27.30;14.80;;;;;;4945829;29;19921;-91
2022/04/18 14:07:31;;;;;;;;;;;26.90;15.50;;;;;;4944640;29;20359;-90
2022/04/18 14:09:57;;;;;;;;;;;26.40;15.80;;;;;;4959919;28;19913;-90
2022/04/18 14:12:23;;;;;;;;;;;26.00;16.10;;;;;;4942442;29;20367;-91
2022/04/18 14:20:26;;;;;;;;;;;25.30;17.10;;;;;;4959840;29;19925;-91
2022/04/18 14:22:52;;;;;;;;;;;25.00;17.50;;;;;;4942380;29;19907;-90
2022/04/18 14:25:18;;;;;;;;;;;24.90;17.80;;;;;;4960167;29;19925;-91
2022/04/18 14:27:44;;;;;;;;;;;24.70;18.10;;;;;;4942240;29;19922;-91
2022/04/18 14:30:13;;;;;;;;;;;24.50;19.00;;;;;;4941419;29;19919;-90
2022/04/18 14:32:39;;;;;;;;;;;24.40;19.10;;;;;;4942960;29;19918;-90
2022/04/18 14:35:05;;;;;;;;;;;24.30;19.20;;;;;;4960310;29;19918;-92
2022/04/18 14:37:31;;;;;;;;;;;24.20;19.20;;;;;;4942031;29;19923;-89
2022/04/18 14:39:57;;;;;;;;;;;24.00;19.30;;;;;;4958993;29;20375;-92
2022/04/18 14:42:24;;;;;;;;;;;24.00;19.50;;;;;;4959849;29;20007;-92
2022/04/18 14:44:53;;;;;;;;;;;23.90;19.70;;;;;;4959259;28;19918;-94
2022/04/18 14:47:19;;;;;;;;;;;23.80;19.90;;;;;;4959093;29;19934;-91